메인 페이지
METAR-TAF:

METAR-TAF

공항 :

은자메나, 차드

위도: 12-08N, 경도: 015-02E, 고도: 295m

현재 날씨관측

예보는 59분 전, 00:00시(UTC)에 발표되었습니다.
북북서6kt
온도 20°C
습도 30%
기압 1016 hPa
시정 10km 이상
1500m 미만 상공 구름 및 적란운 없음

METAR: FTTJ 100000Z 34006KT CAVOK 20/02 Q1016 NOSIG

시각: 01:59 (00:59 UTC)

예보

예보는 7 시간 59분 전, 17:00시(UTC)에 발표되었습니다.
예보 대상 시간: 09일 18시부터 10일 24시까지 (UTC)
8kt
시정: 8000m
전환 중
10일 16시부터 10일 17시까지 (UTC)
시정: 2500m
황사

TAF: FTTJ 091700Z 0918/1024 01008KT 8000 NSC BECMG 1016/1017 2500 DU

4,000개 이상의 공항 관측 자료 및 예보 (METAR 및 TAF 보고).

지도상에서 검색 가능한 기상관측소가 노란 점과 빨간 점으로 표시되어 있습니다.

기상관측소 명을 보려면 표시 위로 마우스를 이동하세요.

날씨 관측과 예보를 보려면 클릭하세요.

지도 변경 : 확대하려면 엑스 표시가 있는 녹색 버튼, 축소하려면 빼기 표시가 있는 녹색 버튼, 다음 페이지의 지도를 보려면 녹색 화살표를 클릭하세요.


METAR-TAF: